Latest Weather Observations for Lord Howe Island

IDN60801

Issued at 6:35 am EDT Saturday 1 November 2014 (issued every 30 minutes, with the page automatically refreshed every 10 minutes)

About weather observations | Map of weather stations | Latest weather observations for NSW | Other Formats
Station Details ID: 200839 Name: LORD HOWE ISLAND AERO Lat: -31.54 Lon: 159.08 Height: 5.0 m
Data from the previous 72 hours. | See also: Recent months at Lord Howe Island
Date/Time
EDT
Temp
°C
App
Temp
°C
Dew
Point
Rel
Hum
%
Delta-T
°C
Wind Press
QNH
hPa
Press
MSL
hPa
Rain
since 9 am
mm
Dir
 
Spd
km/h
Gust
km/h
Spd
kts
Gust
kts
01/06:30am 21.5 22.5 18.6 83 1.8 N 11 24 6 13 1018.0 - 0.0
01/06:00am 20.9 22.2 18.5 86 1.5 NNE 9 22 5 12 1017.7 1017.7 0.0
01/05:47am 20.8 21.8 18.6 87 1.4 NNE 11 19 6 10 1017.5 - 0.0
01/05:46am 20.8 21.8 18.6 87 1.4 N 11 20 6 11 1017.5 - 0.0
01/05:30am 20.7 21.2 18.3 86 1.5 N 13 24 7 13 1017.2 - 0.0
01/05:00am 20.7 20.1 18.5 87 1.4 NE 19 33 10 18 1016.6 - 0.0
01/04:30am 20.7 19.9 18.5 87 1.4 NE 20 43 11 23 1016.3 - 0.0
01/04:00am 20.6 19.4 18.3 87 1.4 NNE 22 46 12 25 1016.4 - 0.0
01/03:30am 20.6 19.0 18.3 87 1.4 NE 24 35 13 19 1016.6 - 0.0
01/03:00am 20.6 19.7 18.3 87 1.4 NE 20 33 11 18 1017.0 1017.0 0.0
01/02:40am 20.5 19.2 18.1 86 1.5 NNE 22 32 12 17 1017.3 - 0.0
01/02:37am 20.5 19.2 18.1 86 1.5 NNE 22 32 12 17 1017.3 - 0.0
01/02:30am 20.4 19.1 18.1 87 1.4 NE 22 30 12 16 1017.4 - 0.0
01/02:20am 20.5 18.8 18.1 86 1.5 NE 24 35 13 19 1017.5 - 0.0
01/02:00am 20.4 18.8 18.3 88 1.3 NNE 24 30 13 16 1017.5 - 0.0
01/01:30am 20.4 19.0 18.0 86 1.5 NE 22 30 12 16 1017.9 - 0.0
01/01:00am 20.4 19.4 18.0 86 1.5 NE 20 28 11 15 1018.4 - 0.0
01/12:30am 20.5 20.7 17.6 83 1.8 NE 13 33 7 18 1018.9 - 0.0
01/12:00am 20.7 20.8 17.4 81 2.0 NNE 13 28 7 15 1019.4 1019.4 0.0
 
Date/Time
EDT
Temp
°C
App
Temp
°C
Dew
Point
Rel
Hum
%
Delta-T
°C
Wind Press
QNH
hPa
Press
MSL
hPa
Rain
since 9 am
mm
Dir
 
Spd
km/h
Gust
km/h
Spd
kts
Gust
kts
31/11:30pm 20.6 20.6 17.2 81 2.1 NNE 13 33 7 18 1019.4 - 0.0
31/11:00pm 20.7 20.0 17.4 81 2.0 NNE 17 30 9 16 1019.2 - 0.0
31/10:30pm 20.5 19.1 17.0 80 2.1 NE 20 30 11 16 1019.0 - 0.0
31/10:00pm 20.5 19.2 17.2 81 2.0 NNE 20 28 11 15 1018.9 - 0.0
31/09:30pm 20.5 18.2 16.7 79 2.3 NNE 24 32 13 17 1018.9 - 0.0
31/09:00pm 20.5 18.5 16.5 78 2.4 NNE 22 30 12 16 1018.7 1018.7 0.0
31/08:30pm 20.6 17.9 16.6 78 2.4 NNE 26 32 14 17 1018.7 - 0.0
31/08:00pm 20.6 18.6 16.4 77 2.5 NNE 22 30 12 16 1018.3 - 0.0
31/07:52pm 20.5 18.6 16.7 79 2.3 NE 22 28 12 15 1018.2 - 0.0
31/07:30pm 20.6 18.4 16.8 79 2.3 NNE 24 32 13 17 1017.9 - 0.0
31/07:18pm 20.6 18.5 17.2 81 2.1 NE 24 30 13 16 1017.8 - 0.0
31/07:00pm 20.6 18.4 16.8 79 2.3 NE 24 30 13 16 1017.7 - 0.0
31/06:30pm 20.7 18.4 16.6 77 2.5 NE 24 32 13 17 1017.5 - 0.0
31/06:00pm 20.9 18.0 16.1 74 2.9 NNE 26 32 14 17 1017.4 1017.4 0.0
31/05:30pm 21.3 18.9 16.3 73 3.0 NNE 24 30 13 16 1017.4 - 0.0
31/05:00pm 21.5 18.8 16.5 73 3.0 NNE 26 30 14 16 1017.4 - 0.0
31/04:30pm 21.9 19.5 16.3 70 3.4 NNE 24 28 13 15 1017.5 - 0.0
31/04:00pm 22.2 20.7 16.8 71 3.3 NNE 20 26 11 14 1017.5 - 0.0
31/03:30pm 22.6 21.2 16.9 70 3.5 NNE 20 24 11 13 1017.7 - 0.0
31/03:00pm 22.6 21.0 16.1 66 3.9 NNE 19 24 10 13 1017.8 1017.8 0.0
31/02:30pm 22.7 21.2 16.8 69 3.6 NNE 20 24 11 13 1018.1 - 0.0
31/02:00pm 22.6 21.3 16.7 69 3.6 NNE 19 22 10 12 1018.4 - 0.0
31/01:30pm 22.5 20.5 16.4 68 3.7 NNE 22 26 12 14 1018.7 - 0.0
31/01:00pm 22.5 21.0 16.4 68 3.7 NNE 19 22 10 12 1019.0 - 0.0
31/12:30pm 22.5 21.0 16.4 68 3.7 NNE 19 24 10 13 1019.2 - 0.0
31/12:00pm 22.8 21.5 16.7 68 3.7 NE 19 24 10 13 1019.4 1019.4 0.0
31/11:30am 22.5 21.2 16.9 70 3.4 NE 19 28 10 15 1019.4 - 0.0
31/11:00am 22.5 21.2 16.8 70 3.5 NNE 19 22 10 12 1019.7 - 0.0
31/10:30am 22.6 21.3 16.7 69 3.6 NNE 19 22 10 12 1019.7 - 0.0
31/10:10am 22.4 21.5 16.8 70 3.4 NNE 17 22 9 12 1019.8 - 0.0
31/10:00am 22.5 21.3 17.1 71 3.3 NE 19 24 10 13 1019.8 - 0.0
31/09:57am 22.5 21.6 16.8 70 3.5 NE 17 20 9 11 1019.8 - 0.0
31/09:30am 22.2 20.9 16.8 71 3.3 NNE 19 24 10 13 1019.7 - 0.0
31/09:00am 22.0 21.0 16.6 71 3.3 NNE 17 22 9 12 1019.6 1019.6 0.0
31/08:30am 21.9 21.0 16.8 73 3.1 NE 17 22 9 12 1019.4 - 0.0
31/08:00am 21.6 22.0 16.3 72 3.2 NNW 9 15 5 8 1019.5 - 0.0
31/07:30am 21.0 20.8 15.8 72 3.1 NNW 11 17 6 9 1019.5 - 0.0
31/07:00am 20.7 21.7 16.4 76 2.6 NNW 6 11 3 6 1019.3 - 0.0
31/06:30am 20.0 21.7 16.2 79 2.3 NW 2 9 1 5 1019.0 - 0.0
31/06:00am 18.6 19.4 15.9 84 1.6 N 6 9 3 5 1018.8 1018.8 0.0
31/05:30am 18.1 20.1 15.9 87 1.3 CALM 0 0 0 0 1018.5 - 0.0
31/05:00am 19.3 19.9 15.9 81 2.0 N 7 11 4 6 1018.2 - 0.0
31/04:30am 18.2 19.2 16.4 89 1.1 NE 6 9 3 5 1017.9 - 0.0
31/04:07am 19.5 20.1 16.8 84 1.6 NNE 9 11 5 6 1017.8 - 0.0
31/04:00am 19.6 20.2 16.8 84 1.7 NNE 9 13 5 7 1017.8 - 0.0
31/03:47am 19.5 19.7 16.7 84 1.7 NNE 11 15 6 8 1017.7 - 0.0
31/03:30am 19.2 18.9 16.5 84 1.6 NE 13 15 7 8 1017.7 - 0.0
31/03:00am 19.3 18.6 16.5 84 1.7 NE 15 19 8 10 1017.8 1017.8 0.0
31/02:38am 19.5 18.7 16.1 81 2.0 NE 15 19 8 10 1017.9 - 0.0
31/02:30am 19.5 18.8 16.5 83 1.8 NE 15 19 8 10 1018.0 - 0.0
31/02:28am 19.5 18.8 16.5 83 1.8 NE 15 19 8 10 1018.0 - 0.0
31/02:16am 19.4 18.6 16.0 81 2.0 NE 15 20 8 11 1017.9 - 0.0
31/02:00am 19.6 18.7 15.9 79 2.2 NNE 15 19 8 10 1018.0 - 0.0
31/01:50am 19.6 18.4 16.1 80 2.1 NE 17 20 9 11 1018.0 - 0.0
31/01:30am 19.3 17.8 16.3 83 1.8 NE 19 22 10 12 1018.0 - 0.0
31/01:00am 19.2 17.8 15.6 79 2.1 NE 17 20 9 11 1018.2 - 0.0
31/12:30am 19.2 17.2 15.6 79 2.1 NE 20 26 11 14 1018.2 - 0.0
31/12:07am 19.4 17.6 15.5 78 2.3 NE 19 24 10 13 1018.4 - 0.0
31/12:00am 19.3 17.3 15.6 79 2.2 NE 20 24 11 13 1018.4 1018.4 0.0
 
Date/Time
EDT
Temp
°C
App
Temp
°C
Dew
Point
Rel
Hum
%
Delta-T
°C
Wind Press
QNH
hPa
Press
MSL
hPa
Rain
since 9 am
mm
Dir
 
Spd
km/h
Gust
km/h
Spd
kts
Gust
kts
30/11:46pm 19.3 17.5 15.9 81 2.0 NE 20 26 11 14 1018.6 - 0.0
30/11:30pm 19.1 16.8 15.7 80 2.0 NE 22 26 12 14 1018.4 - 0.0
30/11:00pm 19.0 17.1 15.2 78 2.2 NE 19 24 10 13 1018.7 - 0.0
30/10:30pm 18.9 17.2 14.8 77 2.4 NE 17 20 9 11 1018.7 - 0.0
30/10:00pm 18.9 16.8 14.6 76 2.5 NE 19 22 10 12 1018.7 - 0.0
30/09:30pm 18.8 16.7 13.7 72 2.9 ENE 17 20 9 11 1018.7 - 0.0
30/09:00pm 18.5 16.7 13.4 72 2.9 NE 15 19 8 10 1018.7 1018.7 0.0
30/08:30pm 18.3 16.8 13.1 71 2.9 NE 13 17 7 9 1018.6 - 0.0
30/08:00pm 18.5 17.0 13.2 71 3.0 ENE 13 17 7 9 1018.2 - 0.0
30/07:30pm 18.0 16.8 12.8 71 2.9 ENE 11 15 6 8 1018.0 - 0.0
30/07:00pm 18.5 17.0 13.0 70 3.1 ENE 13 17 7 9 1017.5 - 0.0
30/06:30pm 18.7 17.1 12.8 68 3.3 ENE 13 17 7 9 1017.5 - 0.0
30/06:00pm 19.4 17.7 12.4 64 3.9 ENE 13 15 7 8 1017.3 1017.3 0.0
30/05:30pm 19.9 18.6 12.6 63 4.1 ENE 11 15 6 8 1017.3 - 0.0
30/05:00pm 20.1 18.8 12.6 62 4.2 NE 11 15 6 8 1017.2 - 0.0
30/04:30pm 20.2 18.9 12.5 61 4.3 NE 11 15 6 8 1017.3 - 0.0
30/04:00pm 20.6 19.6 12.2 58 4.7 E 9 13 5 7 1017.3 - 0.0
30/03:30pm 20.3 19.3 12.3 60 4.5 E 9 13 5 7 1017.3 - 0.0
30/03:00pm 21.1 20.5 13.4 61 4.4 E 9 15 5 8 1017.5 1017.5 0.0
30/02:30pm 20.0 19.1 12.5 62 4.2 ENE 9 11 5 6 1017.6 - 0.0
30/02:00pm 20.1 19.2 12.6 62 4.2 ENE 9 11 5 6 1018.0 - 0.0
30/01:30pm 21.1 20.4 13.2 60 4.5 E 9 13 5 7 1018.1 - 0.0
30/01:00pm 20.8 19.3 13.1 61 4.4 ENE 13 15 7 8 1018.1 - 0.0
30/12:30pm 20.6 19.4 12.8 61 4.4 E 11 15 6 8 1018.3 - 0.0
30/12:00pm 20.8 19.7 13.1 61 4.4 E 11 15 6 8 1018.6 1018.6 0.0
30/11:30am 21.1 20.1 13.4 61 4.4 ENE 11 13 6 7 1019.0 - 0.0
30/11:00am 20.6 19.7 12.6 60 4.5 E 9 13 5 7 1019.2 - 0.0
30/10:30am 20.7 19.9 12.9 61 4.4 ENE 9 13 5 7 1019.2 - 0.0
30/10:00am 20.3 19.0 12.5 61 4.4 E 11 15 6 8 1019.3 - 0.0
30/09:30am 20.5 19.7 12.9 61 4.3 ENE 9 13 5 7 1019.4 - 0.0
30/09:00am 20.4 19.4 12.4 60 4.5 ENE 9 13 5 7 1019.2 1019.2 0.0
30/08:30am 19.5 18.8 12.1 62 4.1 E 7 11 4 6 1019.1 - 0.0
30/08:00am 19.8 18.7 12.1 61 4.3 E 9 13 5 7 1019.0 - 0.0
30/07:30am 19.7 18.6 11.9 60 4.3 E 9 15 5 8 1018.7 - 0.0
30/07:00am 19.2 18.2 12.2 64 3.9 E 9 15 5 8 1018.4 - 0.0
30/06:30am 18.5 17.3 11.5 63 3.8 SE 9 11 5 6 1018.0 - 0.0
30/06:00am 17.4 15.8 11.7 69 3.1 SE 11 15 6 8 1017.8 1017.8 0.0
30/05:30am 17.7 16.1 11.6 67 3.3 SE 11 13 6 7 1017.7 - 0.0
30/05:00am 16.8 15.7 11.8 72 2.7 SE 9 13 5 7 1017.4 - 0.0
30/04:30am 17.2 16.0 11.7 70 3.0 SE 9 13 5 7 1017.3 - 0.0
30/04:00am 17.8 16.2 11.6 67 3.4 SE 11 15 6 8 1017.3 - 0.0
30/03:30am 17.8 16.2 11.6 67 3.4 SE 11 17 6 9 1017.3 - 0.0
30/03:00am 17.8 16.0 12.0 69 3.2 SE 13 17 7 9 1017.4 1017.4 0.0
30/02:30am 17.7 15.8 11.9 69 3.2 ESE 13 19 7 10 1017.4 - 0.0
30/02:00am 17.9 16.3 11.7 67 3.4 SE 11 17 6 9 1017.4 - 0.0
30/01:30am 18.2 17.1 11.8 66 3.5 SE 9 13 5 7 1017.6 - 0.0
30/01:00am 18.3 16.4 11.9 66 3.5 ESE 13 22 7 12 1017.7 - 0.0
30/12:30am 18.4 16.6 12.1 66 3.5 SE 13 20 7 11 1017.9 - 0.0
30/12:00am 18.4 16.7 12.3 67 3.4 ESE 13 19 7 10 1018.1 1018.1 0.0
 
Date/Time
EDT
Temp
°C
App
Temp
°C
Dew
Point
Rel
Hum
%
Delta-T
°C
Wind Press
QNH
hPa
Press
MSL
hPa
Rain
since 9 am
mm
Dir
 
Spd
km/h
Gust
km/h
Spd
kts
Gust
kts
29/11:30pm 18.7 16.8 11.8 64 3.8 SE 13 24 7 13 1018.1 - 0.0
29/11:00pm 18.9 16.3 12.0 64 3.8 ESE 17 24 9 13 1018.0 - 0.0
29/10:30pm 18.9 16.2 11.8 63 3.9 ESE 17 32 9 17 1018.0 - 0.0
29/10:00pm 18.9 16.5 12.6 67 3.5 SE 17 30 9 16 1018.0 - 0.0
29/09:30pm 18.8 16.9 13.1 69 3.2 ESE 15 33 8 18 1017.9 - 0.0
29/09:00pm 19.0 17.0 12.8 67 3.5 SE 15 28 8 15 1017.8 1017.8 0.0
29/08:30pm 19.1 16.5 13.1 68 3.4 ESE 19 32 10 17 1017.5 - 0.0
29/08:00pm 19.1 16.4 12.9 67 3.5 SE 19 26 10 14 1017.2 - 0.0
29/07:30pm 19.2 16.4 14.2 73 2.9 ESE 22 35 12 19 1016.9 - 0.0
29/07:00pm 19.2 16.4 14.4 74 2.8 ESE 22 39 12 21 1016.6 - 0.0
29/06:30pm 19.5 17.1 14.5 73 2.9 ESE 20 32 11 17 1016.2 - 0.0
29/06:00pm 20.0 17.9 15.2 74 2.8 SE 20 30 11 16 1015.7 1015.7 0.0
29/05:30pm 21.0 18.8 14.5 66 3.8 ESE 19 32 10 17 1015.3 - 0.0
29/05:00pm 21.6 20.6 17.5 77 2.5 WSW 19 30 10 16 1015.1 - 0.0
29/04:30pm 22.1 21.0 17.2 74 3.0 WSW 19 22 10 12 1014.9 - 0.0
29/04:00pm 22.5 21.3 17.1 71 3.3 W 19 22 10 12 1014.8 - 0.0
29/03:30pm 22.6 21.5 17.2 71 3.3 W 19 22 10 12 1014.7 - 0.0
29/03:00pm 22.4 21.4 16.5 69 3.6 W 17 20 9 11 1014.9 1014.9 0.0
29/02:30pm 22.2 21.4 16.2 69 3.6 WSW 15 19 8 10 1015.0 - 0.0
29/02:00pm 22.5 21.7 16.2 67 3.8 W 15 19 8 10 1015.2 - 0.0
29/01:30pm 22.6 21.8 16.2 67 3.9 W 15 19 8 10 1015.2 - 0.0
29/01:00pm 22.3 21.8 16.0 67 3.8 WSW 13 17 7 9 1015.2 - 0.0
29/12:30pm 22.4 22.0 16.1 67 3.8 WSW 13 15 7 8 1015.2 - 0.0
29/12:00pm 21.8 21.6 15.6 68 3.7 WSW 11 15 6 8 1015.4 1015.4 0.0
29/11:30am 21.7 21.3 15.3 67 3.8 W 11 13 6 7 1015.4 - 0.0
29/11:00am 22.1 21.6 15.8 67 3.8 WSW 13 17 7 9 1015.6 - 0.0
29/10:30am 21.9 20.5 15.5 67 3.8 WSW 17 17 9 9 1015.6 - 0.0
29/10:00am 21.7 20.3 15.5 68 3.7 WSW 17 22 9 12 1015.5 - 0.0
29/09:30am 21.4 19.9 15.3 68 3.6 WSW 17 20 9 11 1015.2 - 0.0
29/09:00am 21.1 20.0 15.4 70 3.4 SW 15 19 8 10 1014.8 1014.8 0.8
29/08:30am 20.8 20.1 16.3 75 2.7 SW 15 20 8 11 1014.7 - 0.8
29/08:00am 20.3 19.9 16.1 77 2.5 SW 13 19 7 10 1014.4 - 0.8
29/07:30am 19.8 19.7 16.1 79 2.2 SW 11 17 6 9 1014.1 - 0.8
29/07:00am 19.0 19.0 15.3 79 2.2 SSW 9 13 5 7 1013.8 - 0.8

Other Formats:

Comma delimited format used in spreadsheet applications
http://www.bom.gov.au/fwo/IDN60801/IDN60801.94995.axf

JavaScript Object Notation format (JSON) in row-major order
http://www.bom.gov.au/fwo/IDN60801/IDN60801.94995.json